createdAt,value
2019-01-05T00:00:43.980Z,50.07
2019-01-05T00:03:28.056Z,49.70
2019-01-05T00:06:22.296Z,50.70
2019-01-05T00:09:10.442Z,49.27
2019-01-05T00:12:13.520Z,50.80
2019-01-05T00:15:00.337Z,50.37
2019-01-05T00:17:49.057Z,55.80
2019-01-05T00:20:35.751Z,47.93
2019-01-05T00:23:22.493Z,53.73
2019-01-05T00:26:19.545Z,52.27
2019-01-05T00:29:06.444Z,46.60
2019-01-05T00:31:53.899Z,48.40
2019-01-05T00:34:54.547Z,53.67
2019-01-05T00:37:41.597Z,52.67
2019-01-05T00:40:32.388Z,56.80
2019-01-05T00:43:23.039Z,53.97
2019-01-05T00:46:28.596Z,52.57
2019-01-05T00:49:19.265Z,54.20
2019-01-05T00:52:25.550Z,84.60
2019-01-05T00:55:14.550Z,58.30
2019-01-05T00:58:01.175Z,48.13
2019-01-05T01:00:55.560Z,47.67
2019-01-05T01:03:46.819Z,50.67
2019-01-05T01:06:49.794Z,49.70
2019-01-05T01:09:38.116Z,55.33
2019-01-05T01:12:25.249Z,51.03
2019-01-05T01:15:28.033Z,55.37
2019-01-05T01:18:15.637Z,49.53
2019-01-05T01:21:03.838Z,49.57
2019-01-05T01:23:55.403Z,48.53
2019-01-05T01:26:52.369Z,48.63
2019-01-05T01:29:47.664Z,51.70
2019-01-05T01:32:34.548Z,48.83
2019-01-05T01:35:21.679Z,42.00
2019-01-05T01:38:47.912Z,43.00
2019-01-05T01:41:39.857Z,60.37
2019-01-05T01:44:46.263Z,46.03
2019-01-05T01:47:34.698Z,43.87
2019-01-05T01:50:25.874Z,44.67
2019-01-05T01:53:13.673Z,42.73
2019-01-05T01:56:02.347Z,45.87
2019-01-05T01:58:58.550Z,44.47
2019-01-05T02:01:45.506Z,43.57
2019-01-05T02:04:30.433Z,45.00
2019-01-05T02:07:34.337Z,40.13
2019-01-05T02:10:18.363Z,42.10
2019-01-05T02:13:08.088Z,38.23
2019-01-05T02:16:01.211Z,38.87
2019-01-05T02:19:10.192Z,43.10
2019-01-05T02:22:26.286Z,41.27
2019-01-05T02:25:55.658Z,33.50
2019-01-05T02:29:23.423Z,36.43
2019-01-05T02:32:34.080Z,34.37
2019-01-05T02:36:01.342Z,32.63
2019-01-05T02:39:11.657Z,30.13
2019-01-05T02:42:42.436Z,28.53
2019-01-05T02:46:03.615Z,25.87
2019-01-05T02:49:07.573Z,26.83
2019-01-05T02:52:27.566Z,24.30
2019-01-05T02:56:02.532Z,21.07
2019-01-05T02:59:52.226Z,29.73
2019-01-05T03:03:23.226Z,22.63
2019-01-05T03:07:17.601Z,21.23
2019-01-05T03:10:46.714Z,20.37
2019-01-05T03:14:20.137Z,23.70
2019-01-05T03:17:46.016Z,24.33
2019-01-05T03:21:22.886Z,23.77
2019-01-05T03:24:48.802Z,19.57
2019-01-05T03:28:14.423Z,21.60
2019-01-05T03:31:49.260Z,21.90
2019-01-05T03:35:04.870Z,22.03
2019-01-05T03:38:28.858Z,19.10
2019-01-05T03:41:37.692Z,19.47
2019-01-05T03:45:02.648Z,17.97
2019-01-05T03:48:59.622Z,18.50
2019-01-05T03:52:22.044Z,20.90
2019-01-05T03:56:04.932Z,16.80
2019-01-05T03:59:32.524Z,18.73
2019-01-05T04:03:04.209Z,15.40
2019-01-05T04:06:24.672Z,15.40
2019-01-05T04:12:43.679Z,14.30
2019-01-05T04:16:00.982Z,14.53
2019-01-05T04:19:41.781Z,15.73
2019-01-05T04:23:08.883Z,13.87
2019-01-05T04:26:34.186Z,14.43
2019-01-05T04:30:03.249Z,16.17
2019-01-05T04:33:11.035Z,14.37
2019-01-05T04:36:40.817Z,16.00
2019-01-05T04:40:00.242Z,15.13
2019-01-05T04:43:45.969Z,14.77
2019-01-05T04:47:12.104Z,14.77
2019-01-05T04:50:52.229Z,14.63
2019-01-05T04:54:19.703Z,12.90
2019-01-05T04:57:39.076Z,12.67
2019-01-05T05:01:33.127Z,12.03
2019-01-05T05:05:02.938Z,15.23
2019-01-05T05:08:43.913Z,15.40
2019-01-05T05:12:15.087Z,13.53
2019-01-05T05:16:01.929Z,17.77
2019-01-05T05:19:40.885Z,17.07
2019-01-05T05:23:33.614Z,18.33
2019-01-05T05:26:54.569Z,17.63
2019-01-05T05:30:20.187Z,18.80
2019-01-05T05:33:58.780Z,20.13
2019-01-05T05:37:13.658Z,19.60
2019-01-05T05:40:37.486Z,17.73
2019-01-05T05:44:00.657Z,18.47
2019-01-05T05:47:20.512Z,20.47
2019-01-05T05:50:43.449Z,18.17
2019-01-05T05:54:11.198Z,18.93
2019-01-05T05:57:45.714Z,20.27
2019-01-05T06:01:28.516Z,17.00
2019-01-05T06:04:55.360Z,16.80
2019-01-05T06:08:13.870Z,17.23
2019-01-05T06:12:02.447Z,16.60
2019-01-05T06:15:45.628Z,18.10
2019-01-05T06:19:20.963Z,19.70
2019-01-05T06:22:56.841Z,17.23
2019-01-05T06:26:10.588Z,19.10
2019-01-05T06:29:39.381Z,17.57
2019-01-05T06:33:03.115Z,20.47
2019-01-05T06:36:46.368Z,21.67
2019-01-05T06:40:19.749Z,20.60
2019-01-05T06:43:50.654Z,19.73
2019-01-05T06:47:27.532Z,21.47
2019-01-05T06:51:10.902Z,22.50
2019-01-05T06:54:49.535Z,19.67
2019-01-05T06:58:23.159Z,22.63
2019-01-05T07:02:15.891Z,20.47
2019-01-05T07:05:44.168Z,21.83
2019-01-05T07:09:22.463Z,19.27
2019-01-05T07:12:45.803Z,21.83
2019-01-05T07:15:57.668Z,15.50
2019-01-05T07:19:43.528Z,15.47
2019-01-05T07:23:14.324Z,11.43
2019-01-05T07:26:49.614Z,14.77
2019-01-05T07:30:11.711Z,15.80
2019-01-05T07:33:48.326Z,11.77
2019-01-05T07:37:09.667Z,8.03
2019-01-05T07:40:32.268Z,9.23
2019-01-05T07:43:49.267Z,10.20
2019-01-05T07:47:24.341Z,7.67
2019-01-05T07:51:00.988Z,11.30
2019-01-05T07:54:40.604Z,7.50
2019-01-05T07:58:03.022Z,5.93
2019-01-05T08:01:30.582Z,10.23
2019-01-05T08:04:52.963Z,6.03
2019-01-05T08:08:10.302Z,10.67
2019-01-05T08:11:41.646Z,7.70
2019-01-05T08:15:10.002Z,11.40
2019-01-05T08:18:40.011Z,6.80
2019-01-05T08:22:06.114Z,8.43
2019-01-05T08:25:40.627Z,8.30
2019-01-05T08:28:50.431Z,9.50
2019-01-05T08:32:22.686Z,9.33
2019-01-05T08:35:44.721Z,12.43
2019-01-05T08:39:46.923Z,7.00
2019-01-05T08:43:22.278Z,11.27
2019-01-05T08:46:44.444Z,10.83
2019-01-05T08:50:01.857Z,11.00
2019-01-05T08:53:40.182Z,11.07
2019-01-05T08:57:22.760Z,8.20
2019-01-05T09:00:50.786Z,8.93
2019-01-05T09:04:34.961Z,9.23
2019-01-05T09:07:59.913Z,9.50
2019-01-05T09:11:28.269Z,11.40
2019-01-05T09:14:53.336Z,11.23
2019-01-05T09:18:29.412Z,8.17
2019-01-05T09:22:04.177Z,12.17
2019-01-05T09:25:42.134Z,11.07
2019-01-05T09:29:48.859Z,9.53
2019-01-05T09:33:06.738Z,6.47
2019-01-05T09:36:33.882Z,8.53
2019-01-05T09:40:02.353Z,10.20
2019-01-05T09:43:42.779Z,9.67
2019-01-05T09:47:24.508Z,9.27
2019-01-05T09:50:50.050Z,9.80
2019-01-05T09:54:43.958Z,8.63
2019-01-05T09:58:19.248Z,6.20
2019-01-05T10:01:47.466Z,8.23
2019-01-05T10:05:40.696Z,8.23
2019-01-05T10:09:33.517Z,3.37
2019-01-05T10:13:04.322Z,7.40
2019-01-05T10:16:46.523Z,13.50
2019-01-05T10:20:27.302Z,11.60
2019-01-05T10:24:29.483Z,6.83
2019-01-05T10:27:38.809Z,8.50
2019-01-05T10:30:59.445Z,7.97
2019-01-05T10:34:35.909Z,9.27
2019-01-05T10:37:52.813Z,11.20
2019-01-05T10:41:32.273Z,9.80
2019-01-05T10:44:37.509Z,7.00
2019-01-05T10:48:19.552Z,15.23
2019-01-05T10:51:47.940Z,7.67
2019-01-05T10:55:15.674Z,11.07
2019-01-05T10:58:55.716Z,6.93
2019-01-05T11:02:36.170Z,7.00
2019-01-05T11:05:51.563Z,5.87
2019-01-05T11:09:55.587Z,5.23
2019-01-05T11:13:34.090Z,5.47
2019-01-05T11:17:09.506Z,6.20
2019-01-05T11:20:35.863Z,6.43
2019-01-05T11:24:05.707Z,7.73
2019-01-05T11:27:33.413Z,9.50
2019-01-05T11:31:00.583Z,5.40
2019-01-05T11:34:40.588Z,6.63
2019-01-05T11:38:10.577Z,4.70
2019-01-05T11:41:48.512Z,6.20
2019-01-05T11:45:10.588Z,9.53
2019-01-05T11:48:52.466Z,7.63
2019-01-05T11:52:14.190Z,5.53
2019-01-05T11:55:27.457Z,7.20
2019-01-05T11:58:53.537Z,6.90
2019-01-05T12:02:24.764Z,13.93
2019-01-05T12:05:55.712Z,5.87
2019-01-05T12:09:26.443Z,11.87
2019-01-05T12:13:00.456Z,5.80
2019-01-05T12:16:30.109Z,11.83
2019-01-05T12:19:53.029Z,8.67
2019-01-05T12:23:50.902Z,8.60
2019-01-05T12:27:20.658Z,7.90
2019-01-05T12:31:12.326Z,10.17
2019-01-05T12:34:46.770Z,8.30
2019-01-05T12:38:23.686Z,11.60
2019-01-05T12:42:03.722Z,12.80
2019-01-05T12:45:38.446Z,10.97
2019-01-05T12:49:14.692Z,9.17
2019-01-05T12:52:46.026Z,12.70
2019-01-05T12:56:09.499Z,10.47
2019-01-05T12:59:50.563Z,9.83
2019-01-05T13:03:34.821Z,7.40
2019-01-05T13:07:02.819Z,6.23
2019-01-05T13:10:23.071Z,6.17
2019-01-05T13:13:44.254Z,7.53
2019-01-05T13:17:08.762Z,6.23
2019-01-05T13:20:21.135Z,6.00
2019-01-05T13:24:04.365Z,9.40
2019-01-05T13:27:26.656Z,6.50
2019-01-05T13:30:54.762Z,9.27
2019-01-05T13:34:18.045Z,5.90
2019-01-05T13:37:55.243Z,6.57
2019-01-05T13:41:27.355Z,7.60
2019-01-05T13:45:06.876Z,4.90
2019-01-05T13:48:40.102Z,5.13
2019-01-05T13:52:17.197Z,8.13
2019-01-05T13:55:17.727Z,4.07
2019-01-05T13:58:13.383Z,6.57
2019-01-05T14:00:59.160Z,5.93
2019-01-05T14:03:46.195Z,3.87
2019-01-05T14:06:32.506Z,5.17
2019-01-05T14:09:19.577Z,6.87
2019-01-05T14:12:10.480Z,3.93
2019-01-05T14:15:02.355Z,6.80
2019-01-05T14:17:48.959Z,5.60
2019-01-05T14:20:40.180Z,4.23
2019-01-05T14:23:40.447Z,6.90
2019-01-05T14:26:31.205Z,5.77
2019-01-05T14:29:31.088Z,5.37
2019-01-05T14:32:17.453Z,7.67
2019-01-05T14:35:09.754Z,5.17
2019-01-05T14:38:13.213Z,7.13
2019-01-05T14:41:05.706Z,5.47
2019-01-05T14:43:52.409Z,3.67
2019-01-05T14:46:38.864Z,5.50
2019-01-05T14:49:27.185Z,3.13
2019-01-05T14:52:13.867Z,3.60
2019-01-05T14:55:00.725Z,6.93
2019-01-05T14:57:47.101Z,4.57
2019-01-05T15:00:30.040Z,3.70
2019-01-05T15:03:36.275Z,3.77
2019-01-05T15:06:23.097Z,5.33
2019-01-05T15:09:10.075Z,5.27
2019-01-05T15:12:16.066Z,4.20
2019-01-05T15:15:13.510Z,4.30
2019-01-05T15:18:10.816Z,4.17
2019-01-05T15:20:57.804Z,6.90
2019-01-05T15:23:44.816Z,9.97
2019-01-05T15:26:31.575Z,4.83
2019-01-05T15:29:28.025Z,7.10
2019-01-05T15:32:17.721Z,6.40
2019-01-05T15:35:04.478Z,12.40
2019-01-05T15:37:55.353Z,7.70
2019-01-05T15:40:43.654Z,6.80
2019-01-05T15:43:31.804Z,6.50
2019-01-05T15:46:19.147Z,9.17
2019-01-05T15:49:10.562Z,6.33
2019-01-05T15:52:01.905Z,6.70
2019-01-05T15:54:48.589Z,44.17
2019-01-05T15:57:35.640Z,10.20
2019-01-05T16:00:39.918Z,5.57
2019-01-05T16:03:26.428Z,6.83
2019-01-05T16:06:12.989Z,5.47
2019-01-05T16:08:57.100Z,6.23
2019-01-05T16:11:43.864Z,7.03
2019-01-05T16:14:30.635Z,6.53
2019-01-05T16:17:23.360Z,6.70
2019-01-05T16:20:10.273Z,8.27
2019-01-05T16:22:58.609Z,9.17
2019-01-05T16:25:58.914Z,8.57
2019-01-05T16:28:58.713Z,11.97
2019-01-05T16:31:45.216Z,8.23
2019-01-05T16:34:42.518Z,6.60
2019-01-05T16:37:29.053Z,9.87
2019-01-05T16:40:16.581Z,11.93
2019-01-05T16:43:02.955Z,12.80
2019-01-05T16:45:45.114Z,9.83
2019-01-05T16:48:32.012Z,10.83
2019-01-05T16:51:23.684Z,6.87
2019-01-05T16:54:22.439Z,7.73
2019-01-05T16:57:20.011Z,8.97
2019-01-05T17:00:07.646Z,8.57
2019-01-05T17:03:10.994Z,10.63
2019-01-05T17:05:57.451Z,8.97
2019-01-05T17:08:55.426Z,10.20
2019-01-05T17:11:46.505Z,6.50
2019-01-05T17:14:33.067Z,9.13
2019-01-05T17:17:30.613Z,9.93
2019-01-05T17:20:30.551Z,10.10
2019-01-05T17:23:31.044Z,8.37
2019-01-05T17:26:37.679Z,8.67
2019-01-05T17:29:26.130Z,9.53
2019-01-05T17:32:13.408Z,10.93
2019-01-05T17:35:13.215Z,8.17
2019-01-05T17:38:01.635Z,11.50
2019-01-05T17:40:48.110Z,10.00
2019-01-05T17:43:34.520Z,8.43
2019-01-05T17:46:21.622Z,7.77
2019-01-05T17:49:08.418Z,10.67
2019-01-05T17:51:56.597Z,11.27
2019-01-05T17:54:47.816Z,12.83
2019-01-05T17:57:43.133Z,10.80
2019-01-05T18:00:29.595Z,12.40
2019-01-05T18:03:16.525Z,6.87
2019-01-05T18:06:05.530Z,12.27
2019-01-05T18:08:48.744Z,19.57
2019-01-05T18:11:35.133Z,8.17
2019-01-05T18:14:35.203Z,9.43
2019-01-05T18:17:33.552Z,9.00
2019-01-05T18:20:21.516Z,5.60
2019-01-05T18:23:08.489Z,12.27
2019-01-05T18:26:05.824Z,5.73
2019-01-05T18:28:52.675Z,8.90
2019-01-05T18:31:36.367Z,5.80
2019-01-05T18:34:23.180Z,6.60
2019-01-05T18:37:12.502Z,8.17
2019-01-05T18:39:57.089Z,11.57
2019-01-05T18:42:45.988Z,8.03
2019-01-05T18:45:40.751Z,8.90
2019-01-05T18:48:27.019Z,8.13
2019-01-05T18:51:08.704Z,7.03
2019-01-05T18:53:55.980Z,9.00
2019-01-05T18:56:44.135Z,12.63
2019-01-05T18:59:29.852Z,9.53
2019-01-05T19:02:20.881Z,12.77
2019-01-05T19:05:07.665Z,15.90
2019-01-05T19:08:04.988Z,12.07
2019-01-05T19:10:59.120Z,11.30
2019-01-05T19:13:47.681Z,13.23
2019-01-05T19:16:36.072Z,8.60
2019-01-05T19:19:21.779Z,12.03
2019-01-05T19:22:08.663Z,9.93
2019-01-05T19:24:58.784Z,15.30
2019-01-05T19:27:50.040Z,10.43
2019-01-05T19:30:41.175Z,9.03
2019-01-05T19:33:38.292Z,10.77
2019-01-05T19:36:44.904Z,14.00
2019-01-05T19:39:33.009Z,13.63
2019-01-05T19:42:33.419Z,9.70
2019-01-05T19:45:19.875Z,13.27
2019-01-05T19:48:17.617Z,11.47
2019-01-05T19:51:08.945Z,11.80
2019-01-05T19:54:14.904Z,12.47
2019-01-05T19:57:01.322Z,11.20
2019-01-05T20:00:04.531Z,17.63
2019-01-05T20:02:47.052Z,14.70
2019-01-05T20:05:33.562Z,13.03
2019-01-05T20:08:20.249Z,13.37
2019-01-05T20:11:10.010Z,14.33
2019-01-05T20:13:49.294Z,11.67
2019-01-05T20:16:38.102Z,15.57
2019-01-05T20:19:41.315Z,15.40
2019-01-05T20:22:22.726Z,14.37
2019-01-05T20:25:09.508Z,13.77
2019-01-05T20:28:12.789Z,14.43
2019-01-05T20:31:03.634Z,10.73
2019-01-05T20:33:50.353Z,15.43
2019-01-05T20:36:42.045Z,13.37
2019-01-05T20:39:37.886Z,12.60
2019-01-05T20:42:24.601Z,13.33
2019-01-05T20:45:11.290Z,13.97
2019-01-05T20:48:14.400Z,18.87
2019-01-05T20:51:08.874Z,11.17
2019-01-05T20:54:06.005Z,13.93
2019-01-05T20:57:06.359Z,11.43
2019-01-05T20:59:53.399Z,16.30
2019-01-05T21:02:53.704Z,11.03
2019-01-05T21:05:43.709Z,14.53
2019-01-05T21:08:30.337Z,9.73
2019-01-05T21:11:24.680Z,38.57
2019-01-05T21:14:11.522Z,12.83
2019-01-05T21:16:59.812Z,13.47
2019-01-05T21:19:44.567Z,12.43
2019-01-05T21:22:35.553Z,12.00
2019-01-05T21:25:22.193Z,12.43
2019-01-05T21:28:19.567Z,11.83
2019-01-05T21:31:12.077Z,11.27
2019-01-05T21:33:58.937Z,11.63
2019-01-05T21:36:55.161Z,11.63
2019-01-05T21:39:42.094Z,14.70
2019-01-05T21:42:48.497Z,13.90
2019-01-05T21:45:51.956Z,13.10
2019-01-05T21:48:38.789Z,11.90
2019-01-05T21:51:25.574Z,13.83
2019-01-05T21:54:09.801Z,11.87
2019-01-05T21:56:56.990Z,11.93
2019-01-05T21:59:44.039Z,13.43
2019-01-05T22:02:35.056Z,7.73
2019-01-05T22:05:21.898Z,9.83
2019-01-05T22:08:11.470Z,7.80
2019-01-05T22:10:54.228Z,13.47
2019-01-05T22:13:45.754Z,8.43
2019-01-05T22:16:37.135Z,7.77
2019-01-05T22:19:37.958Z,10.27
2019-01-05T22:22:22.550Z,8.23
2019-01-05T22:25:23.119Z,8.20
2019-01-05T22:28:12.622Z,7.50
2019-01-05T22:30:59.297Z,10.00
2019-01-05T22:34:02.934Z,6.23
2019-01-05T22:36:50.473Z,5.93
2019-01-05T22:39:46.395Z,11.67
2019-01-05T22:42:33.289Z,6.00
2019-01-05T22:45:12.571Z,10.77
2019-01-05T22:48:01.163Z,6.50
2019-01-05T22:50:48.550Z,6.90
2019-01-05T22:53:40.434Z,8.67
2019-01-05T22:56:29.373Z,8.03
2019-01-05T22:59:32.441Z,5.57
2019-01-05T23:02:19.269Z,9.97
2019-01-05T23:05:13.255Z,9.47
2019-01-05T23:08:02.056Z,14.40
2019-01-05T23:10:48.532Z,9.67
2019-01-05T23:13:39.309Z,10.20
2019-01-05T23:16:23.109Z,11.20
2019-01-05T23:19:26.159Z,9.67
2019-01-05T23:22:20.761Z,9.37
2019-01-05T23:25:07.089Z,8.27
2019-01-05T23:28:13.387Z,8.97
2019-01-05T23:31:01.590Z,10.17
2019-01-05T23:34:04.708Z,11.67
2019-01-05T23:37:04.833Z,11.83
2019-01-05T23:40:11.099Z,10.53
2019-01-05T23:42:57.782Z,11.87
2019-01-05T23:45:45.344Z,7.27
2019-01-05T23:48:51.683Z,10.80
2019-01-05T23:51:39.659Z,9.13
2019-01-05T23:54:39.819Z,7.97
2019-01-05T23:57:26.531Z,8.40
